createdAt,value
2022-12-14T00:01:28.027Z,6.00
2022-12-14T00:03:55.999Z,5.68
2022-12-14T00:06:25.579Z,5.60
2022-12-14T00:08:54.878Z,6.40
2022-12-14T00:11:24.891Z,6.30
2022-12-14T00:14:03.041Z,6.15
2022-12-14T00:16:32.858Z,6.72
2022-12-14T00:19:01.107Z,6.10
2022-12-14T00:21:28.456Z,6.18
2022-12-14T00:23:55.927Z,7.10
2022-12-14T00:26:25.833Z,6.25
2022-12-14T00:28:53.901Z,6.80
2022-12-14T00:31:22.200Z,6.50
2022-12-14T00:33:50.445Z,6.22
2022-12-14T00:36:17.479Z,6.57
2022-12-14T00:38:44.329Z,7.03
2022-12-14T00:41:11.532Z,7.07
2022-12-14T00:43:38.401Z,6.80
2022-12-14T00:46:05.508Z,7.13
2022-12-14T00:48:33.132Z,6.70
2022-12-14T00:51:00.512Z,6.28
2022-12-14T00:53:27.399Z,5.93
2022-12-14T00:55:54.216Z,6.75
2022-12-14T00:58:23.435Z,5.97
2022-12-14T01:01:07.527Z,6.13
2022-12-14T01:03:35.067Z,6.05
2022-12-14T01:06:02.587Z,5.78
2022-12-14T01:08:36.050Z,5.68
2022-12-14T01:11:07.911Z,6.10
2022-12-14T01:13:35.782Z,6.47
2022-12-14T01:16:07.023Z,6.47
2022-12-14T01:18:35.590Z,8.07
2022-12-14T01:21:22.304Z,7.07
2022-12-14T01:23:53.830Z,7.13
2022-12-14T01:26:21.288Z,6.70
2022-12-14T01:28:52.408Z,6.97
2022-12-14T01:31:22.205Z,6.72
2022-12-14T01:33:49.294Z,6.43
2022-12-14T01:36:18.596Z,6.47
2022-12-14T01:38:46.053Z,6.10
2022-12-14T01:41:36.290Z,6.28
2022-12-14T01:44:22.889Z,5.68
2022-12-14T01:47:27.397Z,6.05
2022-12-14T01:50:17.500Z,6.07
2022-12-14T01:52:47.134Z,6.28
2022-12-14T01:55:20.998Z,6.50
2022-12-14T01:58:10.534Z,5.32
2022-12-14T02:00:37.818Z,6.03
2022-12-14T02:03:10.760Z,6.40
2022-12-14T02:05:42.210Z,6.63
2022-12-14T02:08:09.528Z,6.28
2022-12-14T02:10:36.503Z,6.32
2022-12-14T02:13:14.635Z,6.45
2022-12-14T02:15:42.211Z,5.68
2022-12-14T02:18:31.396Z,6.22
2022-12-14T02:21:03.809Z,5.90
2022-12-14T02:23:42.627Z,6.15
2022-12-14T02:26:40.273Z,6.57
2022-12-14T02:29:09.649Z,5.90
2022-12-14T02:32:06.705Z,6.00
2022-12-14T02:34:42.521Z,6.35
2022-12-14T02:37:22.565Z,5.47
2022-12-14T02:40:32.855Z,6.90
2022-12-14T02:43:08.465Z,7.40
2022-12-14T02:45:42.773Z,6.90
2022-12-14T02:48:39.637Z,6.63
2022-12-14T02:51:30.433Z,6.50
2022-12-14T02:54:04.716Z,6.75
2022-12-14T02:56:43.800Z,7.30
2022-12-14T02:59:11.972Z,6.80
2022-12-14T03:01:40.102Z,6.65
2022-12-14T03:04:07.694Z,6.63
2022-12-14T03:06:34.612Z,6.47
2022-12-14T03:09:08.636Z,6.68
2022-12-14T03:12:04.330Z,5.80
2022-12-14T03:14:35.679Z,5.88
2022-12-14T03:17:17.627Z,6.22
2022-12-14T03:20:02.085Z,5.25
2022-12-14T03:22:39.967Z,6.20
2022-12-14T03:25:16.474Z,5.72
2022-12-14T03:27:51.793Z,6.25
2022-12-14T03:30:43.965Z,6.88
2022-12-14T03:33:10.629Z,5.90
2022-12-14T03:35:46.780Z,5.63
2022-12-14T03:38:32.570Z,5.47
2022-12-14T03:41:26.331Z,6.25
2022-12-14T03:44:19.499Z,5.72
2022-12-14T03:46:46.176Z,6.13
2022-12-14T03:49:28.384Z,6.70
2022-12-14T03:51:55.046Z,6.10
2022-12-14T03:54:49.585Z,6.35
2022-12-14T03:57:53.086Z,6.70
2022-12-14T04:00:23.453Z,6.03
2022-12-14T04:02:50.335Z,6.22
2022-12-14T04:05:41.718Z,6.50
2022-12-14T04:08:41.834Z,5.57
2022-12-14T04:11:32.134Z,6.00
2022-12-14T04:14:46.979Z,6.30
2022-12-14T04:17:37.920Z,7.13
2022-12-14T04:20:13.080Z,6.75
2022-12-14T04:22:46.438Z,6.40
2022-12-14T04:25:37.184Z,6.85
2022-12-14T04:28:34.785Z,6.82
2022-12-14T04:31:07.895Z,6.75
2022-12-14T04:33:48.500Z,6.97
2022-12-14T04:36:30.848Z,6.60
2022-12-14T04:39:04.774Z,6.82
2022-12-14T04:41:36.483Z,6.50
2022-12-14T04:46:41.127Z,6.70
2022-12-14T04:49:19.125Z,6.95
2022-12-14T04:52:06.103Z,6.75
2022-12-14T04:54:35.851Z,7.30
2022-12-14T04:57:15.872Z,7.20
2022-12-14T04:59:46.085Z,7.45
2022-12-14T05:02:50.880Z,7.65
2022-12-14T05:05:42.687Z,7.68
2022-12-14T05:08:46.905Z,9.23
2022-12-14T05:14:29.272Z,7.85
2022-12-14T05:16:56.989Z,7.63
2022-12-14T05:19:26.541Z,9.13
2022-12-14T05:21:54.349Z,8.02
2022-12-14T05:24:21.049Z,8.07
2022-12-14T05:26:47.910Z,9.95
2022-12-14T05:29:15.165Z,8.77
2022-12-14T05:31:41.932Z,7.95
2022-12-14T05:34:15.856Z,8.32
2022-12-14T05:36:42.563Z,7.90
2022-12-14T05:39:09.360Z,8.15
2022-12-14T05:41:36.185Z,7.78
2022-12-14T05:44:02.905Z,7.93
2022-12-14T05:46:29.681Z,8.50
2022-12-14T05:48:56.586Z,8.50
2022-12-14T05:51:23.298Z,8.23
2022-12-14T05:53:50.128Z,8.35
2022-12-14T05:56:17.176Z,7.68
2022-12-14T05:58:43.933Z,8.07
2022-12-14T06:01:18.539Z,8.68
2022-12-14T06:03:46.707Z,7.63
2022-12-14T06:06:14.614Z,8.32
2022-12-14T06:08:45.848Z,9.02
2022-12-14T06:13:42.352Z,8.13
2022-12-14T06:16:09.311Z,8.68
2022-12-14T06:18:36.514Z,8.52
2022-12-14T06:21:03.629Z,8.07
2022-12-14T06:23:30.690Z,9.07
2022-12-14T06:25:57.580Z,10.13
2022-12-14T06:28:24.506Z,9.23
2022-12-14T06:30:51.405Z,9.45
2022-12-14T06:33:18.229Z,9.10
2022-12-14T06:35:46.264Z,9.38
2022-12-14T06:38:13.980Z,10.00
2022-12-14T06:40:41.307Z,9.77
2022-12-14T06:43:08.347Z,9.20
2022-12-14T06:45:35.148Z,9.80
2022-12-14T06:48:02.172Z,9.30
2022-12-14T06:50:29.022Z,10.25
2022-12-14T06:52:56.136Z,9.30
2022-12-14T06:55:26.406Z,10.77
2022-12-14T06:57:54.334Z,10.13
2022-12-14T07:00:23.115Z,10.30
2022-12-14T07:02:50.702Z,10.77
2022-12-14T07:05:17.679Z,10.05
2022-12-14T07:07:44.495Z,11.27
2022-12-14T07:10:12.840Z,12.23
2022-12-14T07:12:40.513Z,10.57
2022-12-14T07:15:08.088Z,10.57
2022-12-14T07:17:36.428Z,10.15
2022-12-14T07:20:05.675Z,9.85
2022-12-14T07:22:33.097Z,10.30
2022-12-14T07:25:00.315Z,10.25
2022-12-14T07:27:27.081Z,10.98
2022-12-14T07:29:54.229Z,9.98
2022-12-14T07:32:21.110Z,10.25
2022-12-14T07:34:48.151Z,11.07
2022-12-14T07:37:15.150Z,10.15
2022-12-14T07:39:41.873Z,10.93
2022-12-14T07:42:08.821Z,10.38
2022-12-14T07:44:35.521Z,10.52
2022-12-14T07:47:02.224Z,10.20
2022-12-14T07:49:29.475Z,10.18
2022-12-14T07:51:56.205Z,10.95
2022-12-14T07:54:23.370Z,9.63
2022-12-14T07:56:50.948Z,10.18
2022-12-14T07:59:17.700Z,10.23
2022-12-14T08:01:45.252Z,10.60
2022-12-14T08:04:15.741Z,10.20
2022-12-14T08:06:43.316Z,10.32
2022-12-14T08:09:11.886Z,10.63
2022-12-14T08:11:40.150Z,10.43
2022-12-14T08:14:11.679Z,9.23
2022-12-14T08:16:38.464Z,9.85
2022-12-14T08:19:05.245Z,10.50
2022-12-14T08:21:32.022Z,8.77
2022-12-14T08:23:59.261Z,8.75
2022-12-14T08:26:30.146Z,8.27
2022-12-14T08:29:00.149Z,8.45
2022-12-14T08:31:28.295Z,8.93
2022-12-14T08:33:55.476Z,9.30
2022-12-14T08:36:25.138Z,9.10
2022-12-14T08:38:54.144Z,9.05
2022-12-14T08:41:21.592Z,9.63
2022-12-14T08:43:54.032Z,8.85
2022-12-14T08:46:21.481Z,9.30
2022-12-14T08:48:50.699Z,8.63
2022-12-14T08:51:17.612Z,9.32
2022-12-14T08:53:44.619Z,8.95
2022-12-14T08:56:14.391Z,9.10
2022-12-14T08:58:42.041Z,8.75
2022-12-14T09:01:14.408Z,9.43
2022-12-14T09:03:44.459Z,9.02
2022-12-14T09:06:14.151Z,9.25
2022-12-14T09:08:41.128Z,8.63
2022-12-14T09:11:12.708Z,9.85
2022-12-14T09:13:39.820Z,8.57
2022-12-14T09:16:13.310Z,9.50
2022-12-14T09:18:40.556Z,9.50
2022-12-14T09:21:08.105Z,9.60
2022-12-14T09:23:36.335Z,9.68
2022-12-14T09:26:10.348Z,10.18
2022-12-14T09:28:39.228Z,9.55
2022-12-14T09:31:10.296Z,9.73
2022-12-14T09:33:37.755Z,9.05
2022-12-14T09:36:08.517Z,9.00
2022-12-14T09:38:37.743Z,9.15
2022-12-14T09:41:07.963Z,8.82
2022-12-14T09:43:40.919Z,9.60
2022-12-14T09:46:20.978Z,9.23
2022-12-14T09:48:49.212Z,8.02
2022-12-14T09:51:19.534Z,8.35
2022-12-14T09:53:50.418Z,8.13
2022-12-14T09:56:20.168Z,9.57
2022-12-14T09:59:02.031Z,9.38
2022-12-14T10:04:36.725Z,9.13
2022-12-14T10:07:24.149Z,9.10
2022-12-14T10:10:01.291Z,8.88
2022-12-14T10:12:38.387Z,8.70
2022-12-14T10:15:28.083Z,8.60
2022-12-14T10:18:00.500Z,9.18
2022-12-14T10:20:40.086Z,9.57
2022-12-14T10:23:18.113Z,8.45
2022-12-14T10:25:51.521Z,7.97
2022-12-14T10:28:24.835Z,9.05
2022-12-14T10:31:00.489Z,8.38
2022-12-14T10:33:32.105Z,7.68
2022-12-14T10:36:12.003Z,7.88
2022-12-14T10:38:58.359Z,8.07
2022-12-14T10:41:41.079Z,7.68
2022-12-14T10:44:32.457Z,7.00
2022-12-14T10:47:06.225Z,6.03
2022-12-14T10:49:55.488Z,6.75
2022-12-14T10:52:26.619Z,6.75
2022-12-14T10:54:55.588Z,6.38
2022-12-14T10:57:27.541Z,5.90
2022-12-14T11:00:10.900Z,6.07
2022-12-14T11:02:43.269Z,6.00
2022-12-14T11:05:45.534Z,5.20
2022-12-14T11:08:48.242Z,4.75
2022-12-14T11:11:26.403Z,4.40
2022-12-14T11:14:10.185Z,4.45
2022-12-14T11:16:39.376Z,4.03
2022-12-14T11:19:16.793Z,4.00
2022-12-14T11:21:44.579Z,3.38
2022-12-14T11:24:25.761Z,3.90
2022-12-14T11:27:01.087Z,3.70
2022-12-14T11:29:34.258Z,2.92
2022-12-14T11:32:01.774Z,2.90
2022-12-14T11:34:38.219Z,2.90
2022-12-14T11:37:21.566Z,2.40
2022-12-14T11:39:55.134Z,2.25
2022-12-14T11:42:23.019Z,2.50
2022-12-14T11:44:51.273Z,1.80
2022-12-14T11:47:20.083Z,1.80
2022-12-14T11:49:50.536Z,2.20
2022-12-14T11:52:21.809Z,2.25
2022-12-14T11:55:14.934Z,2.08
2022-12-14T11:57:53.016Z,1.80
2022-12-14T12:00:52.656Z,1.77
2022-12-14T12:03:23.317Z,1.90
2022-12-14T12:05:51.827Z,1.52
2022-12-14T12:08:27.065Z,2.25
2022-12-14T12:11:01.809Z,2.05
2022-12-14T12:13:39.100Z,2.10
2022-12-14T12:16:16.803Z,2.45
2022-12-14T12:19:11.893Z,1.70
2022-12-14T12:21:44.860Z,1.73
2022-12-14T12:24:20.864Z,1.92
2022-12-14T12:27:12.160Z,2.00
2022-12-14T12:29:54.234Z,2.10
2022-12-14T12:35:11.410Z,1.98
2022-12-14T12:37:50.275Z,2.17
2022-12-14T12:40:24.443Z,2.00
2022-12-14T12:43:03.673Z,2.60
2022-12-14T12:45:39.361Z,1.98
2022-12-14T12:48:22.047Z,2.63
2022-12-14T12:50:53.510Z,2.15
2022-12-14T12:53:37.320Z,3.92
2022-12-14T12:56:10.841Z,2.72
2022-12-14T12:58:39.498Z,2.45
2022-12-14T13:01:44.188Z,2.00
2022-12-14T13:04:41.267Z,2.70
2022-12-14T13:07:32.335Z,2.28
2022-12-14T13:10:06.207Z,2.78
2022-12-14T13:12:39.105Z,2.08
2022-12-14T13:15:42.216Z,2.20
2022-12-14T13:18:40.658Z,2.13
2022-12-14T13:21:36.196Z,2.75
2022-12-14T13:24:05.120Z,1.95
2022-12-14T13:26:57.225Z,2.42
2022-12-14T13:29:47.384Z,2.42
2022-12-14T13:32:47.224Z,1.85
2022-12-14T13:35:58.128Z,2.10
2022-12-14T13:38:48.813Z,2.25
2022-12-14T13:41:34.084Z,2.20
2022-12-14T13:44:04.396Z,2.25
2022-12-14T13:46:31.600Z,2.10
2022-12-14T13:49:05.539Z,2.15
2022-12-14T13:51:36.872Z,1.95
2022-12-14T13:54:07.707Z,2.42
2022-12-14T13:56:38.482Z,2.30
2022-12-14T13:59:21.641Z,2.17
2022-12-14T14:01:48.560Z,1.95
2022-12-14T14:04:21.198Z,2.30
2022-12-14T14:06:55.616Z,2.55
2022-12-14T14:09:31.441Z,2.67
2022-12-14T14:12:03.204Z,2.70
2022-12-14T14:17:01.165Z,2.75
2022-12-14T14:19:35.084Z,2.80
2022-12-14T14:22:22.728Z,3.15
2022-12-14T14:24:59.496Z,3.10
2022-12-14T14:27:50.341Z,3.50
2022-12-14T14:30:25.923Z,3.00
2022-12-14T14:32:54.270Z,3.42
2022-12-14T14:35:22.567Z,3.45
2022-12-14T14:37:57.113Z,3.00
2022-12-14T14:40:44.186Z,3.20
2022-12-14T14:43:37.837Z,3.20
2022-12-14T14:46:07.993Z,3.22
2022-12-14T14:48:37.371Z,2.97
2022-12-14T14:51:34.957Z,2.75
2022-12-14T14:57:32.933Z,3.38
2022-12-14T15:00:02.461Z,3.10
2022-12-14T15:07:58.622Z,3.20
2022-12-14T15:10:39.390Z,3.22
2022-12-14T15:13:09.367Z,3.35
2022-12-14T15:15:45.307Z,2.75
2022-12-14T15:18:22.815Z,3.25
2022-12-14T15:21:11.810Z,3.00
2022-12-14T15:23:52.903Z,2.83
2022-12-14T15:26:21.493Z,3.00
2022-12-14T15:28:51.560Z,3.10
2022-12-14T15:31:26.906Z,3.22
2022-12-14T15:33:54.693Z,3.15
2022-12-14T15:36:27.048Z,3.20
2022-12-14T15:38:56.820Z,2.85
2022-12-14T15:41:27.571Z,3.10
2022-12-14T15:43:59.585Z,3.05
2022-12-14T15:46:33.456Z,2.85
2022-12-14T15:49:09.033Z,3.05
2022-12-14T15:51:39.230Z,2.90
2022-12-14T15:54:08.076Z,2.85
2022-12-14T15:56:39.738Z,2.88
2022-12-14T15:59:19.804Z,3.40
2022-12-14T16:02:01.397Z,2.92
2022-12-14T16:04:32.582Z,3.10
2022-12-14T16:07:24.356Z,2.95
2022-12-14T16:10:02.091Z,2.97
2022-12-14T16:12:45.847Z,3.17
2022-12-14T16:15:29.455Z,3.30
2022-12-14T16:18:02.061Z,3.40
2022-12-14T16:20:37.836Z,3.63
2022-12-14T16:23:15.691Z,3.47
2022-12-14T16:26:20.632Z,3.10
2022-12-14T16:28:48.221Z,3.17
2022-12-14T16:31:20.869Z,3.30
2022-12-14T16:34:05.511Z,3.53
2022-12-14T16:36:35.731Z,3.20
2022-12-14T16:39:54.723Z,3.30
2022-12-14T16:42:35.924Z,3.13
2022-12-14T16:45:03.269Z,3.78
2022-12-14T16:47:36.627Z,3.20
2022-12-14T16:53:21.521Z,3.08
2022-12-14T16:56:07.489Z,3.50
2022-12-14T16:58:36.138Z,3.50
2022-12-14T17:01:06.599Z,3.15
2022-12-14T17:03:35.277Z,3.20
2022-12-14T17:06:05.946Z,3.08
2022-12-14T17:08:34.521Z,3.42
2022-12-14T17:11:02.379Z,3.30
2022-12-14T17:13:29.717Z,4.03
2022-12-14T17:16:04.672Z,4.28
2022-12-14T17:18:34.969Z,3.75
2022-12-14T17:21:05.471Z,3.65
2022-12-14T17:23:33.888Z,4.10
2022-12-14T17:26:01.074Z,3.58
2022-12-14T17:28:31.126Z,3.80
2022-12-14T17:31:01.795Z,3.40
2022-12-14T17:33:30.286Z,3.53
2022-12-14T17:35:57.771Z,3.38
2022-12-14T17:38:24.726Z,3.50
2022-12-14T17:40:53.818Z,3.00
2022-12-14T17:43:24.769Z,3.13
2022-12-14T17:45:52.708Z,2.97
2022-12-14T17:48:19.733Z,3.40
2022-12-14T17:50:49.767Z,3.88
2022-12-14T17:53:22.141Z,3.33
2022-12-14T17:55:48.933Z,3.38
2022-12-14T17:58:16.824Z,3.42
2022-12-14T18:01:03.314Z,3.20
2022-12-14T18:03:33.759Z,3.75
2022-12-14T18:06:02.362Z,3.28
2022-12-14T18:08:29.610Z,3.58
2022-12-14T18:11:11.780Z,2.75
2022-12-14T18:13:41.358Z,3.42
2022-12-14T18:16:12.517Z,3.22
2022-12-14T18:18:39.857Z,3.33
2022-12-14T18:21:13.973Z,2.75
2022-12-14T18:23:41.063Z,3.60
2022-12-14T18:26:08.453Z,3.95
2022-12-14T18:28:45.139Z,3.45
2022-12-14T18:31:32.744Z,3.42
2022-12-14T18:34:00.123Z,3.95
2022-12-14T18:36:27.762Z,3.78
2022-12-14T18:38:55.565Z,3.75
2022-12-14T18:41:25.543Z,3.58
2022-12-14T18:43:52.721Z,3.88
2022-12-14T18:46:19.808Z,3.80
2022-12-14T18:48:46.698Z,4.00
2022-12-14T18:51:16.217Z,3.78
2022-12-14T18:53:44.034Z,3.78
2022-12-14T18:56:12.194Z,3.63
2022-12-14T18:58:42.034Z,4.43
2022-12-14T19:01:15.203Z,3.33
2022-12-14T19:03:42.880Z,3.80
2022-12-14T19:09:03.726Z,3.63
2022-12-14T19:11:32.840Z,3.60
2022-12-14T19:14:01.343Z,3.28
2022-12-14T19:16:29.656Z,3.60
2022-12-14T19:18:57.861Z,3.70
2022-12-14T19:21:29.648Z,3.95
2022-12-14T19:23:59.758Z,3.00
2022-12-14T19:26:28.668Z,4.82
2022-12-14T19:28:56.030Z,3.90
2022-12-14T19:31:23.031Z,3.60
2022-12-14T19:33:50.102Z,3.60
2022-12-14T19:36:17.283Z,3.97
2022-12-14T19:38:44.968Z,3.30
2022-12-14T19:41:18.018Z,3.20
2022-12-14T19:43:46.511Z,3.28
2022-12-14T19:46:16.312Z,3.67
2022-12-14T19:48:43.966Z,3.40
2022-12-14T19:51:12.982Z,3.40
2022-12-14T19:53:41.442Z,3.65
2022-12-14T19:56:09.074Z,3.28
2022-12-14T19:58:36.248Z,3.42
2022-12-14T20:01:11.988Z,3.95
2022-12-14T20:03:39.414Z,3.63
2022-12-14T20:06:06.932Z,2.70
2022-12-14T20:08:34.955Z,3.00
2022-12-14T20:11:10.468Z,3.05
2022-12-14T20:13:37.560Z,3.42
2022-12-14T20:16:04.671Z,3.15
2022-12-14T20:18:32.039Z,3.33
2022-12-14T20:21:08.132Z,2.88
2022-12-14T20:23:36.207Z,3.00
2022-12-14T20:26:22.605Z,3.03
2022-12-14T20:28:54.789Z,3.80
2022-12-14T20:31:22.645Z,3.20
2022-12-14T20:33:50.054Z,3.35
2022-12-14T20:36:18.712Z,3.28
2022-12-14T20:38:46.450Z,3.20
2022-12-14T20:41:17.228Z,3.45
2022-12-14T20:43:45.068Z,3.40
2022-12-14T20:46:31.053Z,3.55
2022-12-14T20:49:01.503Z,3.55
2022-12-14T20:51:30.428Z,3.45
2022-12-14T20:53:57.472Z,3.50
2022-12-14T20:56:24.827Z,3.33
2022-12-14T20:58:51.613Z,3.35
2022-12-14T21:01:19.944Z,3.17
2022-12-14T21:03:48.038Z,3.47
2022-12-14T21:06:18.082Z,3.38
2022-12-14T21:09:04.127Z,3.08
2022-12-14T21:11:58.512Z,3.53
2022-12-14T21:14:29.962Z,3.35
2022-12-14T21:16:56.803Z,3.80
2022-12-14T21:19:23.648Z,3.08
2022-12-14T21:21:53.915Z,3.20
2022-12-14T21:24:53.171Z,3.00
2022-12-14T21:27:16.097Z,3.33
2022-12-14T21:29:42.973Z,3.50
2022-12-14T21:32:10.077Z,3.15
2022-12-14T21:34:36.934Z,2.80
2022-12-14T21:37:03.659Z,3.13
2022-12-14T21:39:30.389Z,3.75
2022-12-14T21:42:15.883Z,3.65
2022-12-14T21:44:47.569Z,3.75
2022-12-14T21:47:20.345Z,3.53
2022-12-14T21:49:47.591Z,3.70
2022-12-14T21:52:18.222Z,3.60
2022-12-14T21:54:45.663Z,3.45
2022-12-14T21:57:43.059Z,3.50
2022-12-14T22:00:16.977Z,3.60
2022-12-14T22:02:44.085Z,3.83
2022-12-14T22:05:11.049Z,3.72
2022-12-14T22:07:37.865Z,4.03
2022-12-14T22:10:05.322Z,3.33
2022-12-14T22:12:32.331Z,3.70
2022-12-14T22:14:59.819Z,4.03
2022-12-14T22:17:26.652Z,3.70
2022-12-14T22:19:55.277Z,3.70
2022-12-14T22:22:23.047Z,3.47
2022-12-14T22:24:51.298Z,3.65
2022-12-14T22:27:19.316Z,4.03
2022-12-14T22:29:46.084Z,3.65
2022-12-14T22:32:13.619Z,3.92
2022-12-14T22:34:40.807Z,3.70
2022-12-14T22:37:07.701Z,4.40
2022-12-14T22:39:34.756Z,3.92
2022-12-14T22:42:01.637Z,4.05
2022-12-14T22:44:28.490Z,4.20
2022-12-14T22:46:55.245Z,4.20
2022-12-14T22:49:22.082Z,4.22
2022-12-14T22:51:50.490Z,4.32
2022-12-14T22:54:22.381Z,4.18
2022-12-14T22:56:55.165Z,3.97
2022-12-14T22:59:36.864Z,3.90
2022-12-14T23:02:04.897Z,4.05
2022-12-14T23:04:32.021Z,4.55
2022-12-14T23:06:58.912Z,4.30
2022-12-14T23:09:44.256Z,4.15
2022-12-14T23:12:29.391Z,4.40
2022-12-14T23:15:14.504Z,4.30
2022-12-14T23:17:59.936Z,4.60
2022-12-14T23:20:45.037Z,4.47
2022-12-14T23:23:31.073Z,5.13
2022-12-14T23:26:20.962Z,4.75
2022-12-14T23:29:05.982Z,4.78
2022-12-14T23:31:51.384Z,4.53
2022-12-14T23:34:37.040Z,4.93
2022-12-14T23:37:22.111Z,4.97
2022-12-14T23:40:07.734Z,4.88
2022-12-14T23:42:53.057Z,4.60
2022-12-14T23:45:38.406Z,5.13
2022-12-14T23:48:23.508Z,4.60
2022-12-14T23:51:08.624Z,5.05
2022-12-14T23:53:53.888Z,4.72
2022-12-14T23:56:39.156Z,4.93
2022-12-14T23:59:29.700Z,4.65
